Time;durP1;ratioP1;P1;durP2;ratioP2;P2;SDS_P1;SDS_P2;PMS_P1;PMS_P2;Temp;Humidity;BMP_temperature;BMP_pressure;BME280_temperature;BME280_humidity;BME280_pressure;Samples;Min_cycle;Max_cycle;Signal;HPM_P1;HPM_P2
2023/03/05 00:02:06;;;;;;;33.03;16.20;;;2.50;99.90;;;;;;5050248;28;20230;-73
2023/03/05 00:04:31;;;;;;;43.57;18.43;;;2.50;99.90;;;;;;5049233;28;20574;-73
2023/03/05 00:06:57;;;;;;;39.33;18.07;;;2.50;99.90;;;;;;5048959;28;20185;-73
2023/03/05 00:09:22;;;;;;;40.80;17.67;;;2.50;99.90;;;;;;5050101;28;20209;-73
2023/03/05 00:11:48;;;;;;;36.60;15.13;;;2.50;99.90;;;;;;5050101;28;20872;-73
2023/03/05 00:14:14;;;;;;;39.80;16.10;;;2.50;99.90;;;;;;5048522;28;20192;-73
2023/03/05 00:16:39;;;;;;;36.83;16.17;;;2.50;99.90;;;;;;5049587;28;20565;-73
2023/03/05 00:19:05;;;;;;;41.77;16.40;;;2.50;99.90;;;;;;5048407;28;20268;-73
2023/03/05 00:21:34;;;;;;;34.45;15.90;;;2.50;99.90;;;;;;5049465;28;20185;-73
2023/03/05 00:24:02;;;;;;;40.08;17.05;;;2.50;99.90;;;;;;5048175;28;20196;-73
2023/03/05 00:26:29;;;;;;;25.73;13.05;;;2.40;99.90;;;;;;5049546;28;20707;-73
2023/03/05 00:28:56;;;;;;;40.42;14.98;;;2.40;99.90;;;;;;5049686;28;20672;-73
2023/03/05 00:31:24;;;;;;;25.58;14.45;;;2.40;99.90;;;;;;5049337;28;20236;-73
2023/03/05 00:33:53;;;;;;;27.83;14.48;;;2.40;99.90;;;;;;5049570;28;20223;-72
2023/03/05 00:36:19;;;;;;;28.17;14.00;;;2.50;99.90;;;;;;5049090;28;20228;-73
2023/03/05 00:38:45;;;;;;;26.93;14.60;;;2.40;99.90;;;;;;5047848;28;20197;-73
2023/03/05 00:41:11;;;;;;;32.50;13.17;;;2.40;99.90;;;;;;5049351;28;20212;-73
2023/03/05 00:43:36;;;;;;;25.40;12.63;;;2.50;99.90;;;;;;5031263;28;20625;-73
2023/03/05 00:46:02;;;;;;;26.90;12.30;;;2.50;99.90;;;;;;5047811;28;20268;-73
2023/03/05 00:48:28;;;;;;;21.73;11.57;;;2.60;99.90;;;;;;5047885;28;20212;-73
2023/03/05 00:50:53;;;;;;;23.70;11.30;;;2.70;99.90;;;;;;5049083;28;20575;-73
2023/03/05 00:53:19;;;;;;;32.03;13.70;;;2.70;99.90;;;;;;5047628;28;20200;-73
2023/03/05 00:55:45;;;;;;;25.23;12.40;;;2.70;99.90;;;;;;5030932;28;20218;-73
2023/03/05 00:58:11;;;;;;;29.50;11.43;;;2.70;99.90;;;;;;5048902;28;20439;-73
2023/03/05 01:00:36;;;;;;;24.07;12.23;;;2.80;99.90;;;;;;5030626;28;20196;-73
2023/03/05 01:03:02;;;;;;;27.83;11.70;;;2.80;99.90;;;;;;5047567;28;20180;-73
2023/03/05 01:05:28;;;;;;;29.00;11.70;;;2.70;99.90;;;;;;5048734;28;20189;-73
2023/03/05 01:07:54;;;;;;;19.37;10.93;;;2.70;99.90;;;;;;5048605;28;20439;-73
2023/03/05 01:10:22;;;;;;;22.13;10.95;;;2.80;99.90;;;;;;5049211;28;20188;-73
2023/03/05 01:12:48;;;;;;;26.63;11.60;;;2.80;99.90;;;;;;5049188;28;20267;-73
2023/03/05 01:15:14;;;;;;;28.23;11.95;;;2.80;99.90;;;;;;5047382;28;20967;-73
2023/03/05 01:17:40;;;;;;;23.27;11.50;;;2.80;99.90;;;;;;5048429;28;20220;-73
2023/03/05 01:20:08;;;;;;;19.03;10.40;;;2.70;99.90;;;;;;5048635;28;20427;-73
2023/03/05 01:22:33;;;;;;;24.27;11.27;;;2.80;99.90;;;;;;5047034;28;20199;-73
2023/03/05 01:24:59;;;;;;;26.87;11.27;;;2.70;99.90;;;;;;5047086;28;20190;-73
2023/03/05 01:27:25;;;;;;;24.35;12.32;;;2.80;99.90;;;;;;5048541;28;20210;-73
2023/03/05 01:29:50;;;;;;;27.77;12.50;;;2.80;99.90;;;;;;5046907;28;20713;-73
2023/03/05 01:32:16;;;;;;;23.20;12.20;;;2.90;99.90;;;;;;5047277;28;20932;-73
2023/03/05 01:34:42;;;;;;;24.93;11.57;;;2.90;99.90;;;;;;5046834;28;20244;-72
2023/03/05 01:37:08;;;;;;;27.53;11.70;;;2.90;99.90;;;;;;5048038;28;20220;-73
2023/03/05 01:39:35;;;;;;;22.98;11.90;;;2.90;99.90;;;;;;5046792;28;20181;-73
2023/03/05 01:42:01;;;;;;;24.70;11.73;;;2.90;99.90;;;;;;5048308;28;20182;-73
2023/03/05 01:44:28;;;;;;;29.33;11.45;;;2.90;99.90;;;;;;5048251;28;20185;-73
2023/03/05 01:46:54;;;;;;;23.77;11.73;;;3.00;99.90;;;;;;5046940;28;20197;-73
2023/03/05 01:49:31;;;;;;;18.37;10.07;;;3.00;99.90;;;;;;5013721;28;20212;-73
2023/03/05 01:52:04;;;;;;;19.13;10.50;;;3.00;99.90;;;;;;5046852;28;20629;-73
2023/03/05 01:54:42;;;;;;;27.05;11.95;;;3.00;99.90;;;;;;5046599;28;20272;-73
2023/03/05 01:57:15;;;;;;;23.27;12.30;;;3.00;99.90;;;;;;5048199;28;20214;-73
2023/03/05 01:59:44;;;;;;;20.67;9.68;;;3.00;99.90;;;;;;5048136;28;20274;-73
2023/03/05 02:02:11;;;;;;;19.80;9.75;;;2.90;99.90;;;;;;5048068;28;20531;-73
2023/03/05 02:04:44;;;;;;;18.98;10.40;;;2.90;99.90;;;;;;5048154;28;20266;-73
2023/03/05 02:07:11;;;;;;;22.58;10.05;;;3.00;99.90;;;;;;5046752;28;20625;-73
2023/03/05 02:09:38;;;;;;;24.90;11.38;;;3.00;99.90;;;;;;5048168;28;20185;-73
2023/03/05 02:12:05;;;;;;;21.92;10.45;;;3.10;99.90;;;;;;5048074;28;20194;-73
2023/03/05 02:14:31;;;;;;;21.48;10.93;;;3.00;99.90;;;;;;5047976;28;20212;-73
2023/03/05 02:16:57;;;;;;;22.90;11.45;;;3.00;99.90;;;;;;5051289;28;20221;-74
2023/03/05 02:19:22;;;;;;;19.87;10.73;;;3.00;99.90;;;;;;5050263;28;20866;-73
2023/03/05 02:21:49;;;;;;;23.93;10.80;;;3.10;99.90;;;;;;5033821;28;20580;-73
2023/03/05 02:24:18;;;;;;;22.60;11.68;;;3.00;99.90;;;;;;5051965;28;20945;-73
2023/03/05 02:26:45;;;;;;;21.52;10.48;;;3.00;99.90;;;;;;5051647;28;20822;-73
2023/03/05 02:29:16;;;;;;;26.90;11.65;;;2.90;99.90;;;;;;5051504;28;20216;-73
2023/03/05 02:31:41;;;;;;;27.80;11.77;;;2.80;99.90;;;;;;5051479;28;20191;-73
2023/03/05 02:34:07;;;;;;;25.53;11.97;;;2.80;99.90;;;;;;5033770;28;20176;-73
2023/03/05 02:36:33;;;;;;;23.60;10.57;;;2.70;99.90;;;;;;5049913;28;20312;-73
2023/03/05 02:38:59;;;;;;;23.50;10.23;;;2.70;99.90;;;;;;5049833;28;20244;-74
2023/03/05 02:41:25;;;;;;;20.30;10.67;;;2.80;99.90;;;;;;5051399;28;20678;-74
2023/03/05 02:43:50;;;;;;;25.00;11.80;;;2.70;99.90;;;;;;5050051;28;20199;-72
2023/03/05 02:46:16;;;;;;;22.40;11.33;;;2.80;99.90;;;;;;5049675;28;20668;-73
2023/03/05 02:48:42;;;;;;;19.20;10.40;;;2.80;99.90;;;;;;5051153;28;20224;-73
2023/03/05 02:51:08;;;;;;;25.17;11.50;;;2.80;99.90;;;;;;5051153;28;20424;-73
2023/03/05 02:53:34;;;;;;;20.58;10.85;;;2.90;99.90;;;;;;5051179;28;20188;-73
2023/03/05 02:56:00;;;;;;;24.60;12.40;;;2.90;99.90;;;;;;5051184;28;20189;-73
2023/03/05 02:58:26;;;;;;;23.20;11.88;;;2.90;99.90;;;;;;5032922;28;20278;-73
2023/03/05 03:00:52;;;;;;;24.27;12.00;;;2.90;99.90;;;;;;5032926;28;20660;-73
2023/03/05 03:03:17;;;;;;;24.80;10.17;;;3.00;99.90;;;;;;5032933;28;20197;-73
2023/03/05 03:05:43;;;;;;;23.00;11.10;;;3.00;99.90;;;;;;5049662;28;20185;-73
2023/03/05 03:08:09;;;;;;;26.17;12.03;;;2.90;99.90;;;;;;5032895;28;20656;-73
2023/03/05 03:10:34;;;;;;;31.70;13.00;;;2.90;99.90;;;;;;5050960;28;20699;-73
2023/03/05 03:13:00;;;;;;;29.33;11.83;;;2.90;99.90;;;;;;5049459;28;20515;-73
2023/03/05 03:15:26;;;;;;;23.90;12.17;;;2.80;99.90;;;;;;5050836;28;20610;-73
2023/03/05 03:17:51;;;;;;;30.40;12.70;;;2.80;99.90;;;;;;5051024;28;20943;-73
2023/03/05 03:20:18;;;;;;;24.40;12.10;;;2.80;99.90;;;;;;5052587;28;20190;-73
2023/03/05 03:22:44;;;;;;;28.55;14.00;;;2.80;99.90;;;;;;5050159;28;20657;-73
2023/03/05 03:25:13;;;;;;;32.08;13.95;;;2.80;99.90;;;;;;5050679;28;20193;-73
2023/03/05 03:27:39;;;;;;;26.67;12.43;;;2.90;99.90;;;;;;5032481;28;20249;-73
2023/03/05 03:30:05;;;;;;;31.20;13.60;;;2.90;99.90;;;;;;5051728;28;20240;-73
2023/03/05 03:32:32;;;;;;;27.30;12.57;;;2.90;99.90;;;;;;5051199;28;20180;-73
2023/03/05 03:34:58;;;;;;;32.38;12.90;;;2.90;99.90;;;;;;5050798;28;20371;-73
2023/03/05 03:37:23;;;;;;;29.48;12.85;;;2.90;99.90;;;;;;5050262;28;20251;-73
2023/03/05 03:39:49;;;;;;;28.67;12.63;;;3.00;99.90;;;;;;5050279;28;20207;-73
2023/03/05 03:42:19;;;;;;;21.60;12.20;;;3.00;99.90;;;;;;5050288;28;20191;-73
2023/03/05 03:44:45;;;;;;;26.45;11.65;;;3.00;99.90;;;;;;5050509;28;20669;-73
2023/03/05 03:47:11;;;;;;;21.97;12.10;;;3.00;99.90;;;;;;5050347;28;20198;-73
2023/03/05 03:49:36;;;;;;;30.43;12.57;;;3.00;99.90;;;;;;5050198;28;20253;-73
2023/03/05 03:52:02;;;;;;;22.93;11.40;;;3.00;99.90;;;;;;5032141;28;20192;-73
2023/03/05 03:54:28;;;;;;;34.60;13.37;;;2.90;99.90;;;;;;5050072;28;20193;-73
2023/03/05 03:56:53;;;;;;;31.83;13.43;;;2.80;99.90;;;;;;5048947;28;20982;-73
2023/03/05 03:59:19;;;;;;;31.03;13.23;;;2.80;99.90;;;;;;5049934;28;20209;-73
2023/03/05 04:01:45;;;;;;;28.10;13.73;;;2.90;99.90;;;;;;5048475;28;20262;-73
2023/03/05 04:04:11;;;;;;;30.63;14.63;;;2.80;99.90;;;;;;5049859;28;20838;-73
2023/03/05 04:06:37;;;;;;;29.60;14.38;;;2.70;99.90;;;;;;5049871;28;20821;-73
2023/03/05 04:09:03;;;;;;;37.92;15.80;;;2.70;99.90;;;;;;5049842;28;20815;-73
2023/03/05 04:11:29;;;;;;;33.80;15.43;;;2.60;99.90;;;;;;5048395;28;20188;-73
2023/03/05 04:13:55;;;;;;;34.93;16.03;;;2.60;99.90;;;;;;5049762;28;20192;-73
2023/03/05 04:16:20;;;;;;;36.97;15.43;;;2.70;99.90;;;;;;5049955;28;20205;-73
2023/03/05 04:18:46;;;;;;;32.00;14.77;;;2.70;99.90;;;;;;5049896;28;20203;-73
2023/03/05 04:21:11;;;;;;;33.37;15.70;;;2.70;99.90;;;;;;5049850;28;20177;-73
2023/03/05 04:23:37;;;;;;;37.37;15.00;;;2.70;99.90;;;;;;5050130;28;20562;-73
2023/03/05 04:26:04;;;;;;;28.90;14.10;;;2.80;99.90;;;;;;5032315;28;20646;-73
2023/03/05 04:28:30;;;;;;;28.58;12.30;;;2.80;99.90;;;;;;5049863;28;20436;-73
2023/03/05 04:30:55;;;;;;;31.00;13.23;;;2.80;99.90;;;;;;5050109;28;20177;-73
2023/03/05 04:33:21;;;;;;;29.77;14.80;;;2.80;99.90;;;;;;5048453;28;20417;-74
2023/03/05 04:35:46;;;;;;;33.37;14.67;;;2.80;99.90;;;;;;5048005;28;20227;-73
2023/03/05 04:38:12;;;;;;;29.93;14.27;;;2.80;99.90;;;;;;5047501;28;20224;-73
2023/03/05 04:40:38;;;;;;;33.17;14.03;;;2.80;99.90;;;;;;5049425;28;20189;-73
2023/03/05 04:43:04;;;;;;;24.33;13.23;;;2.80;99.90;;;;;;5049248;28;20765;-73
2023/03/05 04:45:30;;;;;;;32.65;13.70;;;2.90;99.90;;;;;;5049144;28;20177;-73
2023/03/05 04:47:56;;;;;;;30.90;12.60;;;2.90;99.90;;;;;;5049002;28;20602;-73
2023/03/05 04:50:21;;;;;;;25.33;13.80;;;2.80;99.90;;;;;;5047851;28;20436;-73
2023/03/05 04:52:47;;;;;;;29.83;14.70;;;2.80;99.90;;;;;;5048953;28;20184;-73
2023/03/05 04:55:15;;;;;;;22.05;13.07;;;2.90;99.90;;;;;;5048931;28;20187;-73
2023/03/05 04:57:41;;;;;;;30.25;14.23;;;2.80;99.90;;;;;;5048680;28;20215;-73
2023/03/05 05:00:13;;;;;;;30.90;14.40;;;2.80;99.90;;;;;;5047598;28;20557;-73
2023/03/05 05:02:44;;;;;;;29.27;14.95;;;2.80;99.90;;;;;;5048825;28;20422;-73
2023/03/05 05:05:13;;;;;;;38.08;14.95;;;2.80;99.90;;;;;;5048770;28;20571;-73
2023/03/05 05:07:39;;;;;;;31.45;15.48;;;2.80;99.90;;;;;;5048650;28;20577;-73
2023/03/05 05:10:06;;;;;;;36.13;15.88;;;2.80;99.90;;;;;;5048707;28;20547;-73
2023/03/05 05:12:33;;;;;;;36.92;15.05;;;2.80;99.90;;;;;;5048592;28;20184;-73
2023/03/05 05:14:59;;;;;;;35.25;16.08;;;2.80;99.90;;;;;;5048500;28;20188;-73
2023/03/05 05:17:25;;;;;;;30.13;14.93;;;2.80;99.90;;;;;;5048702;28;20220;-73
2023/03/05 05:19:50;;;;;;;32.27;16.17;;;2.80;99.90;;;;;;5047217;28;20181;-73
2023/03/05 05:22:16;;;;;;;32.70;15.50;;;2.80;99.90;;;;;;5048956;28;20951;-73
2023/03/05 05:24:42;;;;;;;26.03;13.93;;;2.70;99.90;;;;;;5049129;28;20447;-73
2023/03/05 05:27:08;;;;;;;38.07;16.60;;;2.70;99.90;;;;;;5047654;28;20487;-73
2023/03/05 05:29:33;;;;;;;31.10;15.40;;;2.50;99.90;;;;;;5048974;28;20200;-73
2023/03/05 05:31:59;;;;;;;33.30;16.23;;;2.50;99.90;;;;;;5048868;28;20191;-73
2023/03/05 05:34:25;;;;;;;33.27;16.30;;;2.50;99.90;;;;;;5048666;28;20665;-73
2023/03/05 05:36:51;;;;;;;34.10;16.17;;;2.60;99.90;;;;;;5048440;28;20254;-73
2023/03/05 05:39:17;;;;;;;35.33;15.37;;;2.60;99.90;;;;;;5048660;28;20292;-73
2023/03/05 05:41:42;;;;;;;40.92;17.20;;;2.60;99.90;;;;;;5048705;28;20438;-73
2023/03/05 05:44:08;;;;;;;32.63;15.87;;;2.70;99.90;;;;;;5047541;28;20193;-73
2023/03/05 05:46:34;;;;;;;37.10;15.60;;;2.60;99.90;;;;;;5047437;28;20191;-73
2023/03/05 05:49:00;;;;;;;41.78;17.60;;;2.60;99.90;;;;;;5048477;28;20273;-73
2023/03/05 05:51:25;;;;;;;39.60;18.20;;;2.60;99.90;;;;;;5051117;28;20212;-73
2023/03/05 05:53:51;;;;;;;39.53;16.60;;;2.60;99.90;;;;;;5051510;28;20267;-73
2023/03/05 05:56:18;;;;;;;37.45;18.05;;;2.60;99.90;;;;;;5052747;28;20208;-73
2023/03/05 05:58:46;;;;;;;37.33;16.60;;;2.50;99.90;;;;;;5053069;28;20661;-73
2023/03/05 06:01:20;;;;;;;38.92;16.75;;;2.50;99.90;;;;;;5052717;28;20227;-73
2023/03/05 06:03:45;;;;;;;35.95;16.05;;;2.50;99.90;;;;;;5052839;28;20199;-73
2023/03/05 06:06:14;;;;;;;40.37;17.27;;;2.50;99.90;;;;;;5050611;28;20673;-73
2023/03/05 06:08:40;;;;;;;47.78;15.25;;;2.50;99.90;;;;;;5050533;28;20454;-73
2023/03/05 06:11:06;;;;;;;40.43;16.70;;;2.50;99.90;;;;;;5051916;28;20318;-73
2023/03/05 06:13:32;;;;;;;39.92;16.80;;;2.50;99.90;;;;;;5051794;28;20466;-73
2023/03/05 06:16:00;;;;;;;34.90;17.83;;;2.60;99.90;;;;;;5051834;28;20301;-73
2023/03/05 06:18:26;;;;;;;38.58;17.50;;;2.60;99.90;;;;;;5051675;28;20443;-73
2023/03/05 06:20:57;;;;;;;33.17;15.73;;;2.50;99.90;;;;;;5051678;28;20630;-73
2023/03/05 06:23:24;;;;;;;38.03;16.50;;;2.60;99.90;;;;;;5051866;28;20251;-73
2023/03/05 06:25:49;;;;;;;35.80;17.23;;;2.60;99.90;;;;;;5051815;28;20190;-73
2023/03/05 06:28:15;;;;;;;38.90;17.73;;;2.50;99.90;;;;;;5033627;28;20213;-73
2023/03/05 06:30:41;;;;;;;41.93;18.23;;;2.60;99.90;;;;;;5050187;28;20498;-73
2023/03/05 06:33:06;;;;;;;38.50;17.20;;;2.60;99.90;;;;;;5050176;28;20460;-73
2023/03/05 06:35:32;;;;;;;36.50;17.23;;;2.60;99.90;;;;;;5050235;28;20231;-73
2023/03/05 06:37:58;;;;;;;43.03;18.60;;;2.60;99.90;;;;;;5051466;28;20727;-73
2023/03/05 06:40:23;;;;;;;39.97;17.50;;;2.70;99.90;;;;;;5050124;28;20238;-73
2023/03/05 06:42:49;;;;;;;38.67;18.87;;;2.70;99.90;;;;;;5051513;28;20176;-73
2023/03/05 06:45:15;;;;;;;44.07;19.00;;;2.70;99.90;;;;;;5051299;28;20185;-73
2023/03/05 06:47:40;;;;;;;41.13;18.30;;;2.70;99.90;;;;;;5051147;28;20208;-73
2023/03/05 06:50:06;;;;;;;38.97;18.07;;;2.80;99.90;;;;;;5051271;28;20185;-73
2023/03/05 06:52:32;;;;;;;41.25;19.58;;;2.80;99.90;;;;;;5050006;28;20189;-73
2023/03/05 06:54:57;;;;;;;36.63;18.33;;;2.80;99.90;;;;;;5033157;28;20593;-74
2023/03/05 06:57:23;;;;;;;37.70;17.93;;;2.80;99.90;;;;;;5051077;28;20213;-73
2023/03/05 06:59:48;;;;;;;37.60;18.20;;;2.90;99.90;;;;;;5049492;28;20400;-73
2023/03/05 07:02:14;;;;;;;40.40;18.10;;;2.90;99.90;;;;;;5051771;28;20180;-72
2023/03/05 07:04:40;;;;;;;39.93;18.27;;;2.90;99.90;;;;;;5051015;28;20212;-75
2023/03/05 07:07:06;;;;;;;36.80;16.93;;;2.90;99.90;;;;;;5049448;28;20559;-73
2023/03/05 07:09:31;;;;;;;32.90;17.40;;;2.80;99.90;;;;;;5050962;28;20223;-73
2023/03/05 07:11:57;;;;;;;40.40;17.07;;;2.90;99.90;;;;;;5016606;28;20424;-74
2023/03/05 07:14:23;;;;;;;37.23;15.47;;;2.90;99.90;;;;;;5049186;28;20692;-72
2023/03/05 07:16:49;;;;;;;34.13;17.13;;;3.00;99.90;;;;;;5049133;28;20217;-74
2023/03/05 07:19:15;;;;;;;43.13;19.02;;;3.00;99.90;;;;;;5049344;28;20319;-74
2023/03/05 07:21:40;;;;;;;37.30;18.80;;;3.00;99.90;;;;;;5050584;28;20296;-74
2023/03/05 07:24:07;;;;;;;43.37;18.57;;;3.10;99.90;;;;;;5049087;28;20431;-74
2023/03/05 07:26:33;;;;;;;34.75;16.70;;;3.10;99.90;;;;;;5050564;28;20181;-74
2023/03/05 07:28:59;;;;;;;31.13;16.33;;;3.10;99.90;;;;;;5050652;28;20342;-74
2023/03/05 07:31:30;;;;;;;35.47;17.88;;;3.10;99.90;;;;;;5050337;28;20932;-74
2023/03/05 07:33:58;;;;;;;40.42;18.23;;;3.10;99.90;;;;;;5050786;28;20254;-74
2023/03/05 07:36:24;;;;;;;38.75;16.75;;;3.10;99.90;;;;;;5050242;28;20247;-74
2023/03/05 07:38:50;;;;;;;33.67;15.35;;;3.10;99.90;;;;;;5050405;28;20254;-74
2023/03/05 07:41:22;;;;;;;42.40;16.37;;;3.20;99.90;;;;;;5049026;28;20185;-74
2023/03/05 07:43:50;;;;;;;37.08;17.05;;;3.00;99.90;;;;;;5048698;28;20187;-74
2023/03/05 07:46:18;;;;;;;37.50;17.67;;;3.10;99.90;;;;;;5050261;28;20208;-74
2023/03/05 07:48:43;;;;;;;49.35;22.02;;;3.10;99.90;;;;;;5050266;28;20619;-74
2023/03/05 07:51:14;;;;;;;48.50;21.37;;;3.30;99.90;;;;;;5050261;28;20200;-74
2023/03/05 07:53:43;;;;;;;39.30;16.88;;;3.30;99.90;;;;;;5050259;28;20439;-73
2023/03/05 07:56:09;;;;;;;39.08;16.73;;;3.40;99.90;;;;;;5050006;28;20189;-74
2023/03/05 07:58:35;;;;;;;42.88;18.85;;;3.40;99.90;;;;;;5049806;28;20198;-74
2023/03/05 08:01:02;;;;;;;69.10;28.02;;;3.40;99.90;;;;;;5048515;28;20194;-74
2023/03/05 08:03:27;;;;;;;40.60;17.48;;;3.40;99.90;;;;;;5050022;28;20181;-74
2023/03/05 08:05:53;;;;;;;34.30;16.70;;;3.50;99.90;;;;;;5048340;28;20196;-74
2023/03/05 08:08:20;;;;;;;35.97;18.13;;;3.60;99.90;;;;;;5031479;28;20755;-74
2023/03/05 08:10:45;;;;;;;39.20;18.60;;;3.60;99.90;;;;;;5049698;28;20186;-74
2023/03/05 08:13:11;;;;;;;38.67;17.67;;;3.60;99.90;;;;;;5048881;28;20194;-74
2023/03/05 08:15:37;;;;;;;44.43;18.03;;;3.50;99.90;;;;;;5049627;28;20188;-74
2023/03/05 08:18:03;;;;;;;36.10;18.40;;;3.60;99.90;;;;;;5049523;28;20302;-74
2023/03/05 08:20:28;;;;;;;38.38;20.58;;;3.50;99.90;;;;;;5049750;28;20230;-74
2023/03/05 08:22:54;;;;;;;38.17;19.17;;;3.60;99.90;;;;;;5049625;28;20255;-74
2023/03/05 08:25:20;;;;;;;44.40;16.70;;;3.60;99.90;;;;;;5049741;28;20200;-74
2023/03/05 08:27:47;;;;;;;33.83;16.60;;;3.70;99.90;;;;;;5049475;28;20581;-72
2023/03/05 08:30:21;;;;;;;29.65;16.80;;;3.70;99.90;;;;;;5048002;28;20190;-74
2023/03/05 08:32:49;;;;;;;36.85;16.98;;;3.70;99.90;;;;;;5050994;28;20422;-73
2023/03/05 08:35:14;;;;;;;37.13;17.00;;;3.70;99.90;;;;;;5049577;28;20186;-74
2023/03/05 08:37:40;;;;;;;34.57;15.83;;;3.80;99.90;;;;;;5047612;28;20216;-73
2023/03/05 08:40:06;;;;;;;29.97;16.53;;;3.80;99.90;;;;;;5047529;28;20289;-73
2023/03/05 08:42:31;;;;;;;32.00;16.30;;;3.90;99.90;;;;;;5048528;28;20335;-73
2023/03/05 08:44:57;;;;;;;30.07;15.70;;;3.90;99.90;;;;;;5046975;28;20287;-73
2023/03/05 08:47:25;;;;;;;34.67;15.90;;;3.90;99.90;;;;;;5046834;28;20201;-73
2023/03/05 08:49:54;;;;;;;33.85;17.13;;;3.90;99.90;;;;;;5047230;28;20178;-73
2023/03/05 08:52:23;;;;;;;32.42;17.35;;;3.90;99.90;;;;;;5046928;28;20195;-73
2023/03/05 08:54:49;;;;;;;33.63;16.90;;;4.00;99.90;;;;;;5048212;28;20187;-73
2023/03/05 08:57:14;;;;;;;33.17;17.83;;;4.00;99.90;;;;;;5048242;28;20213;-73
2023/03/05 08:59:40;;;;;;;31.53;17.47;;;4.10;99.90;;;;;;5046612;28;20229;-73
2023/03/05 09:02:06;;;;;;;37.83;16.63;;;4.10;99.90;;;;;;5046775;28;20191;-73
2023/03/05 09:04:31;;;;;;;30.70;16.20;;;4.10;99.90;;;;;;5048334;28;20182;-73
2023/03/05 09:06:57;;;;;;;37.70;16.90;;;4.20;99.90;;;;;;5030071;28;20205;-73
2023/03/05 09:09:23;;;;;;;36.73;17.80;;;4.30;99.90;;;;;;5046954;28;20662;-73
2023/03/05 09:11:50;;;;;;;40.80;18.33;;;4.30;99.90;;;;;;5046517;28;20730;-73
2023/03/05 09:14:16;;;;;;;30.45;16.17;;;4.30;99.90;;;;;;5047963;28;20608;-73
2023/03/05 09:16:42;;;;;;;33.93;16.30;;;4.30;99.90;;;;;;5046515;28;20221;-73
2023/03/05 09:19:09;;;;;;;32.80;16.20;;;4.30;99.90;;;;;;5047992;28;20289;-73
2023/03/05 09:21:35;;;;;;;34.28;16.10;;;4.30;99.90;;;;;;5047801;28;20174;-73
2023/03/05 09:24:02;;;;;;;28.38;16.60;;;4.30;99.90;;;;;;5046337;28;20181;-73
2023/03/05 09:26:27;;;;;;;37.90;16.27;;;4.30;99.90;;;;;;5046894;28;20228;-73
2023/03/05 09:28:53;;;;;;;29.17;17.03;;;4.30;99.90;;;;;;5047700;28;20701;-73
2023/03/05 09:31:19;;;;;;;32.47;16.60;;;4.30;99.90;;;;;;5047894;28;20190;-73
2023/03/05 09:33:47;;;;;;;32.00;16.57;;;4.30;99.90;;;;;;5046606;28;20201;-73
2023/03/05 09:36:39;;;;;;;30.45;15.73;;;4.40;99.90;;;;;;5009466;28;1075531;-74
2023/03/05 09:39:05;;;;;;;33.00;17.80;;;4.40;99.90;;;;;;5045589;28;20223;-74
2023/03/05 09:41:44;;;;;;;29.08;16.30;;;4.50;99.90;;;;;;5048842;28;20425;-73
2023/03/05 09:44:22;;;;;;;34.55;16.65;;;4.50;99.90;;;;;;5047576;28;20273;-74
2023/03/05 09:47:07;;;;;;;33.40;18.35;;;4.50;99.90;;;;;;5048888;28;20199;-74
2023/03/05 09:49:54;;;;;;;67.22;29.98;;;4.60;99.90;;;;;;5048997;28;20199;-73
2023/03/05 09:52:30;;;;;;;49.55;22.85;;;4.70;99.90;;;;;;5049242;28;20186;-74
2023/03/05 09:54:56;;;;;;;51.58;23.55;;;4.70;99.90;;;;;;5049139;28;20183;-74
2023/03/05 09:57:29;;;;;;;32.55;17.92;;;4.80;99.90;;;;;;5048805;28;20967;-74
2023/03/05 09:59:59;;;;;;;37.05;17.25;;;4.80;99.90;;;;;;5048656;28;20187;-73
2023/03/05 10:02:30;;;;;;;48.20;24.23;;;4.80;99.90;;;;;;5048835;28;20190;-73
2023/03/05 10:05:08;;;;;;;35.45;20.08;;;4.80;99.90;;;;;;5048522;28;20427;-73
2023/03/05 10:07:37;;;;;;;32.20;15.93;;;4.90;99.90;;;;;;5046610;28;20213;-73
2023/03/05 10:10:08;;;;;;;34.92;16.08;;;4.90;99.90;;;;;;5048482;28;20936;-73
2023/03/05 10:12:45;;;;;;;31.50;17.55;;;4.80;99.90;;;;;;5048311;28;20190;-73
2023/03/05 10:15:12;;;;;;;35.40;17.70;;;4.90;99.90;;;;;;5048287;28;20185;-73
2023/03/05 10:17:58;;;;;;;31.85;17.70;;;5.00;99.90;;;;;;5048041;28;20469;-73
2023/03/05 10:20:27;;;;;;;36.53;17.50;;;5.00;99.90;;;;;;5044167;28;20271;-73
2023/03/05 10:22:58;;;;;;;30.90;17.00;;;5.00;99.90;;;;;;5048368;28;20414;-73
2023/03/05 10:25:45;;;;;;;43.17;20.07;;;5.00;99.90;;;;;;5048347;28;20859;-73
2023/03/05 10:28:18;;;;;;;34.40;17.73;;;5.20;99.90;;;;;;5048151;28;20437;-73
2023/03/05 10:30:53;;;;;;;36.10;17.97;;;5.20;99.90;;;;;;5046719;28;20430;-73
2023/03/05 10:33:37;;;;;;;30.40;16.60;;;5.30;99.90;;;;;;5048292;28;20427;-73
2023/03/05 10:36:29;;;;;;;48.37;17.23;;;5.30;99.90;;;;;;5048133;28;20456;-73
2023/03/05 10:39:12;;;;;;;34.65;16.02;;;5.40;99.90;;;;;;5051464;28;20447;-74
2023/03/05 10:41:53;;;;;;;31.70;16.13;;;5.40;99.90;;;;;;5051503;28;20182;-73
2023/03/05 10:44:51;;;;;;;31.23;16.97;;;5.40;99.90;;;;;;5051563;28;20552;-73
2023/03/05 10:47:48;;;;;;;28.10;15.73;;;5.30;99.90;;;;;;5050049;28;20436;-73
2023/03/05 10:50:24;;;;;;;35.77;17.30;;;5.30;99.90;;;;;;5035835;28;20441;-73
2023/03/05 10:53:08;;;;;;;31.93;16.37;;;5.30;99.90;;;;;;5051882;28;20425;-73
2023/03/05 10:55:34;;;;;;;34.07;15.73;;;5.40;99.90;;;;;;5051591;28;20531;-73
2023/03/05 10:58:09;;;;;;;32.43;17.00;;;5.30;99.90;;;;;;5049622;28;21075;-73
2023/03/05 11:00:35;;;;;;;34.25;16.10;;;5.10;99.90;;;;;;5049937;28;20236;-73
2023/03/05 11:03:06;;;;;;;31.13;16.40;;;5.20;99.90;;;;;;5032999;28;20617;-73
2023/03/05 11:05:43;;;;;;;25.57;14.63;;;5.20;99.90;;;;;;5033365;28;20622;-73
2023/03/05 11:08:35;;;;;;;32.22;14.38;;;5.30;99.90;;;;;;5050899;28;21090;-73
2023/03/05 11:11:03;;;;;;;26.73;14.83;;;5.40;99.90;;;;;;5049767;28;20194;-72
2023/03/05 11:13:29;;;;;;;29.13;14.93;;;5.40;99.90;;;;;;5051008;28;20502;-73
2023/03/05 11:16:05;;;;;;;35.90;19.47;;;5.30;99.90;;;;;;5049466;28;20448;-74
2023/03/05 11:18:35;;;;;;;33.40;17.80;;;5.40;99.90;;;;;;5050804;28;20486;-73
2023/03/05 11:21:22;;;;;;;28.40;16.23;;;5.40;99.90;;;;;;5050940;28;20513;-74
2023/03/05 11:24:23;;;;;;;35.73;17.00;;;5.40;99.90;;;;;;5050777;28;20444;-73
2023/03/05 11:26:52;;;;;;;27.45;15.55;;;5.50;99.90;;;;;;5028558;28;20429;-73
2023/03/05 11:29:27;;;;;;;29.60;15.60;;;5.50;99.90;;;;;;5041688;28;20247;-73
2023/03/05 11:31:53;;;;;;;27.70;15.23;;;5.40;99.90;;;;;;5051110;28;20230;-73
2023/03/05 11:34:18;;;;;;;30.77;15.60;;;5.40;99.90;;;;;;5049339;28;20840;-73
2023/03/05 11:36:50;;;;;;;30.70;15.67;;;5.40;99.90;;;;;;5050592;28;20493;-73
2023/03/05 11:39:21;;;;;;;29.83;13.90;;;5.40;99.90;;;;;;5049343;28;20254;-73
2023/03/05 11:41:54;;;;;;;29.37;15.30;;;5.30;99.90;;;;;;5050645;28;20223;-73
2023/03/05 11:44:33;;;;;;;24.70;14.43;;;5.30;99.90;;;;;;5050317;28;20425;-73
2023/03/05 11:47:24;;;;;;;29.27;14.93;;;5.30;99.90;;;;;;5048953;28;20477;-73
2023/03/05 11:49:55;;;;;;;24.87;15.70;;;5.30;99.90;;;;;;5049668;28;20421;-73
2023/03/05 11:52:26;;;;;;;25.07;13.50;;;5.30;99.90;;;;;;5050251;28;20446;-73
2023/03/05 11:55:20;;;;;;;29.40;16.20;;;5.30;99.90;;;;;;5032770;28;20468;-73
2023/03/05 11:57:56;;;;;;;28.17;14.00;;;5.30;99.90;;;;;;5050626;28;20520;-73
2023/03/05 12:00:28;;;;;;;32.80;16.83;;;5.40;99.90;;;;;;5050482;28;20414;-73
2023/03/05 12:02:57;;;;;;;33.05;16.35;;;5.40;99.90;;;;;;5050218;28;20406;-73
2023/03/05 12:05:23;;;;;;;24.10;14.83;;;5.40;99.90;;;;;;5049879;28;20297;-73
2023/03/05 12:07:51;;;;;;;29.10;15.53;;;5.40;99.90;;;;;;5048958;28;20575;-73
2023/03/05 12:10:21;;;;;;;26.07;14.33;;;5.40;99.90;;;;;;5050007;28;20195;-73
2023/03/05 12:12:56;;;;;;;26.77;15.17;;;5.30;99.90;;;;;;5050067;28;20504;-73
2023/03/05 12:15:37;;;;;;;23.90;13.70;;;5.30;99.90;;;;;;5048443;28;20426;-73
2023/03/05 12:18:08;;;;;;;32.40;14.73;;;5.30;99.90;;;;;;5049753;28;20914;-73
2023/03/05 12:21:07;;;;;;;28.50;15.50;;;5.30;99.90;;;;;;5049572;28;20180;-73
2023/03/05 12:23:53;;;;;;;29.30;13.60;;;5.20;99.90;;;;;;5048234;28;20553;-73
2023/03/05 12:26:58;;;;;;;23.80;14.50;;;5.20;99.90;;;;;;5049556;28;20252;-73
2023/03/05 12:29:49;;;;;;;29.05;14.65;;;5.10;99.90;;;;;;5049471;28;20202;-73
2023/03/05 12:32:21;;;;;;;27.93;15.13;;;5.20;99.90;;;;;;5047916;28;20184;-73
2023/03/05 12:35:05;;;;;;;28.40;15.83;;;5.10;99.90;;;;;;5049504;28;20406;-73
2023/03/05 12:37:31;;;;;;;29.53;15.90;;;5.10;99.90;;;;;;5049119;28;20849;-73
2023/03/05 12:40:19;;;;;;;31.67;16.10;;;5.10;99.90;;;;;;5047980;28;20422;-73
2023/03/05 12:42:50;;;;;;;35.67;16.27;;;5.10;99.90;;;;;;5049180;28;20172;-73
2023/03/05 12:45:18;;;;;;;29.60;15.47;;;5.10;99.90;;;;;;5049455;28;20422;-73